createdAt,value
2017-12-23T00:00:52.433Z,22.9
2017-12-23T00:01:54.497Z,21.5
2017-12-23T00:02:56.533Z,21.9
2017-12-23T00:03:58.484Z,20.2
2017-12-23T00:05:00.380Z,21.8
2017-12-23T00:06:02.317Z,20.6
2017-12-23T00:07:04.220Z,21.1
2017-12-23T00:08:06.193Z,21.3
2017-12-23T00:09:08.114Z,21.4
2017-12-23T00:10:12.561Z,21.1
2017-12-23T00:11:14.420Z,22.0
2017-12-23T00:12:16.326Z,21.1
2017-12-23T00:13:18.289Z,20.5
2017-12-23T00:14:20.288Z,22.0
2017-12-23T00:15:25.052Z,22.8
2017-12-23T00:16:27.642Z,21.8
2017-12-23T00:17:30.099Z,23.6
2017-12-23T00:18:32.046Z,23.8
2017-12-23T00:19:34.027Z,23.4
2017-12-23T00:20:38.644Z,24.1
2017-12-23T00:21:40.657Z,23.3
2017-12-23T00:22:42.689Z,24.2
2017-12-23T00:23:45.528Z,24.1
2017-12-23T00:24:47.560Z,25.4
2017-12-23T00:25:50.038Z,25.5
2017-12-23T00:26:52.536Z,26.8
2017-12-23T00:27:55.057Z,26.8
2017-12-23T00:28:57.673Z,28.1
2017-12-23T00:29:59.663Z,28.7
2017-12-23T00:31:04.572Z,27.7
2017-12-23T00:32:06.771Z,28.7
2017-12-23T00:33:08.765Z,30.3
2017-12-23T00:34:11.736Z,29.7
2017-12-23T00:35:14.612Z,30.6
2017-12-23T00:36:16.616Z,31.2
2017-12-23T00:37:18.559Z,30.3
2017-12-23T00:38:20.527Z,30.2
2017-12-23T00:39:22.501Z,30.9
2017-12-23T00:40:24.482Z,31.6
2017-12-23T00:41:26.566Z,29.8
2017-12-23T00:42:28.543Z,32.0
2017-12-23T00:43:30.497Z,31.9
2017-12-23T00:44:32.510Z,31.9
2017-12-23T00:45:34.475Z,32.2
2017-12-23T00:46:36.489Z,32.3
2017-12-23T00:47:41.170Z,32.0
2017-12-23T00:48:43.181Z,31.2
2017-12-23T00:49:45.159Z,32.2
2017-12-23T00:50:47.066Z,32.6
2017-12-23T00:51:49.097Z,32.7
2017-12-23T00:52:50.984Z,32.4
2017-12-23T00:53:52.924Z,32.2
2017-12-23T00:54:54.912Z,32.6
2017-12-23T00:55:57.624Z,32.5
2017-12-23T00:56:59.589Z,33.2
2017-12-23T00:58:01.752Z,32.2
2017-12-23T00:59:06.677Z,33.2
2017-12-23T01:00:09.586Z,33.1
2017-12-23T01:01:11.565Z,34.1
2017-12-23T01:02:13.493Z,34.4
2017-12-23T01:03:15.487Z,34.7
2017-12-23T01:04:17.461Z,34.1
2017-12-23T01:05:19.389Z,33.8
2017-12-23T01:06:21.381Z,33.7
2017-12-23T01:07:23.421Z,33.5
2017-12-23T01:08:26.186Z,33.6
2017-12-23T01:09:28.680Z,33.9
2017-12-23T01:10:30.668Z,34.6
2017-12-23T01:11:32.662Z,33.4
2017-12-23T01:12:34.709Z,35.3
2017-12-23T01:13:37.677Z,34.1
2017-12-23T01:14:39.649Z,33.2
2017-12-23T01:15:41.646Z,33.5
2017-12-23T01:16:50.197Z,32.9
2017-12-23T01:17:52.147Z,33.0
2017-12-23T01:18:54.183Z,33.6
2017-12-23T01:19:57.193Z,34.0
2017-12-23T01:20:59.724Z,32.9
2017-12-23T01:22:01.656Z,33.6
2017-12-23T01:23:03.653Z,33.5
2017-12-23T01:24:06.414Z,33.3
2017-12-23T01:25:08.656Z,33.7
2017-12-23T01:26:11.368Z,33.7
2017-12-23T01:27:13.795Z,34.8
2017-12-23T01:28:16.001Z,34.9
2017-12-23T01:29:20.692Z,34.3
2017-12-23T01:30:22.742Z,34.4
2017-12-23T01:31:24.778Z,35.8
2017-12-23T01:32:27.132Z,35.5
2017-12-23T01:33:29.652Z,36.4
2017-12-23T01:34:32.257Z,34.9
2017-12-23T01:35:35.370Z,36.2
2017-12-23T01:36:37.320Z,37.3
2017-12-23T01:37:39.604Z,37.8
2017-12-23T01:38:41.816Z,37.4
2017-12-23T01:39:44.100Z,37.4
2017-12-23T01:40:46.172Z,36.5
2017-12-23T01:41:48.726Z,35.6
2017-12-23T01:42:50.927Z,36.6
2017-12-23T01:43:53.060Z,35.9
2017-12-23T01:44:55.781Z,37.0
2017-12-23T01:45:57.776Z,35.9
2017-12-23T01:46:59.740Z,36.2
2017-12-23T01:48:01.676Z,35.3
2017-12-23T01:49:03.710Z,34.6
2017-12-23T01:50:05.756Z,35.7
2017-12-23T01:51:07.773Z,34.6
2017-12-23T01:52:09.919Z,35.7
2017-12-23T01:53:12.797Z,35.4
2017-12-23T01:54:14.789Z,35.2
2017-12-23T01:55:16.742Z,35.3
2017-12-23T01:56:18.907Z,36.0
2017-12-23T01:57:20.908Z,35.9
2017-12-23T01:58:23.679Z,37.9
2017-12-23T01:59:26.092Z,35.3
2017-12-23T02:00:28.274Z,36.5
2017-12-23T02:01:30.551Z,37.2
2017-12-23T02:02:32.562Z,37.7
2017-12-23T02:03:35.278Z,35.3
2017-12-23T02:04:37.359Z,36.3
2017-12-23T02:05:39.484Z,38.0
2017-12-23T02:06:41.749Z,37.9
2017-12-23T02:07:43.903Z,37.9
2017-12-23T02:08:47.093Z,39.3
2017-12-23T02:09:49.846Z,39.6
2017-12-23T02:10:51.882Z,37.3
2017-12-23T02:11:53.951Z,40.0
2017-12-23T02:12:57.150Z,39.6
2017-12-23T02:13:59.863Z,39.3
2017-12-23T02:15:02.329Z,40.6
2017-12-23T02:16:05.200Z,40.4
2017-12-23T02:17:07.461Z,41.9
2017-12-23T02:18:09.602Z,42.1
2017-12-23T02:19:28.280Z,42.0
2017-12-23T02:20:30.751Z,41.1
2017-12-23T02:21:33.261Z,41.0
2017-12-23T02:22:35.695Z,42.1
2017-12-23T02:23:38.794Z,41.3
2017-12-23T02:24:41.126Z,41.4
2017-12-23T02:25:43.761Z,42.5
2017-12-23T02:26:46.351Z,43.1
2017-12-23T02:27:48.640Z,42.3
2017-12-23T02:28:53.470Z,43.7
2017-12-23T02:29:56.828Z,43.9
2017-12-23T02:31:02.021Z,44.5
2017-12-23T02:32:04.027Z,43.2
2017-12-23T02:33:06.071Z,42.2
2017-12-23T02:34:08.479Z,43.4
2017-12-23T02:35:10.817Z,43.6
2017-12-23T02:36:13.212Z,41.8
2017-12-23T02:37:15.402Z,41.0
2017-12-23T02:38:17.687Z,40.0
2017-12-23T02:39:19.751Z,39.6
2017-12-23T02:40:22.064Z,40.5
2017-12-23T02:41:24.340Z,40.9
2017-12-23T02:42:26.415Z,40.0
2017-12-23T02:43:29.244Z,41.1
2017-12-23T02:44:34.189Z,40.4
2017-12-23T02:45:36.801Z,39.4
2017-12-23T02:46:39.776Z,40.1
2017-12-23T02:47:43.441Z,40.0
2017-12-23T02:48:45.470Z,40.9
2017-12-23T02:49:47.428Z,39.7
2017-12-23T02:50:50.243Z,39.8
2017-12-23T02:51:52.452Z,41.0
2017-12-23T02:52:54.563Z,40.3
2017-12-23T02:53:56.605Z,40.2
2017-12-23T02:54:58.830Z,40.4
2017-12-23T02:56:00.963Z,39.6
2017-12-23T02:57:02.944Z,40.6
2017-12-23T02:58:05.786Z,39.2
2017-12-23T02:59:08.832Z,40.6
2017-12-23T03:00:17.796Z,40.3
2017-12-23T03:01:19.736Z,39.4
2017-12-23T03:02:21.804Z,39.8
2017-12-23T03:03:24.922Z,39.4
2017-12-23T03:04:26.903Z,38.5
2017-12-23T03:05:28.980Z,39.6
2017-12-23T03:06:31.036Z,39.7
2017-12-23T03:07:33.058Z,38.9
2017-12-23T03:08:35.179Z,39.5
2017-12-23T03:09:37.762Z,39.0
2017-12-23T03:10:39.823Z,39.1
2017-12-23T03:11:41.865Z,40.2
2017-12-23T03:12:44.695Z,39.6
2017-12-23T03:13:46.739Z,38.6
2017-12-23T03:14:49.252Z,40.1
2017-12-23T03:15:51.216Z,39.1
2017-12-23T03:16:53.224Z,38.0
2017-12-23T03:17:55.277Z,39.2
2017-12-23T03:19:04.276Z,38.2
2017-12-23T03:20:06.411Z,37.9
2017-12-23T03:21:09.332Z,39.5
2017-12-23T03:22:11.437Z,38.5
2017-12-23T03:23:13.495Z,39.3
2017-12-23T03:24:15.467Z,39.6
2017-12-23T03:25:17.704Z,39.2
2017-12-23T03:26:19.689Z,40.6
2017-12-23T03:27:21.700Z,40.7
2017-12-23T03:28:24.237Z,38.7
2017-12-23T03:29:26.246Z,41.3
2017-12-23T03:30:28.269Z,39.8
2017-12-23T03:31:30.395Z,40.1
2017-12-23T03:32:32.455Z,39.8
2017-12-23T03:33:34.445Z,40.0
2017-12-23T03:34:37.253Z,39.4
2017-12-23T03:35:39.439Z,41.1
2017-12-23T03:36:41.533Z,40.4
2017-12-23T03:37:43.642Z,40.3
2017-12-23T03:38:45.613Z,40.5
2017-12-23T03:39:47.634Z,41.2
2017-12-23T03:40:49.635Z,41.4
2017-12-23T03:41:52.279Z,41.7
2017-12-23T03:42:54.572Z,42.0
2017-12-23T03:43:59.432Z,41.8
2017-12-23T03:45:01.389Z,42.2
2017-12-23T03:46:03.426Z,43.1
2017-12-23T03:47:05.615Z,43.2
2017-12-23T03:48:07.871Z,41.9
2017-12-23T03:49:10.722Z,42.7
2017-12-23T03:50:12.878Z,42.6
2017-12-23T03:51:15.008Z,43.4
2017-12-23T03:52:17.171Z,43.7
2017-12-23T03:53:19.098Z,42.6
2017-12-23T03:54:21.088Z,43.3
2017-12-23T03:55:23.313Z,42.6
2017-12-23T03:56:25.592Z,41.5
2017-12-23T03:57:27.728Z,43.2
2017-12-23T03:58:30.194Z,42.1
2017-12-23T03:59:32.568Z,42.6
2017-12-23T04:00:34.793Z,41.3
2017-12-23T04:01:37.189Z,41.9
2017-12-23T04:02:39.331Z,41.9
2017-12-23T04:03:48.235Z,40.4
2017-12-23T04:04:50.367Z,40.5
2017-12-23T04:05:52.270Z,40.8
2017-12-23T04:06:55.589Z,39.4
2017-12-23T04:07:57.521Z,39.5
2017-12-23T04:08:59.671Z,37.8
2017-12-23T04:10:01.731Z,36.3
2017-12-23T04:11:03.882Z,34.6
2017-12-23T04:12:05.975Z,35.9
2017-12-23T04:13:07.945Z,35.5
2017-12-23T04:14:11.079Z,34.7
2017-12-23T04:15:13.817Z,32.4
2017-12-23T04:16:15.855Z,31.8
2017-12-23T04:17:18.016Z,29.9
2017-12-23T04:18:20.308Z,30.8
2017-12-23T04:19:22.371Z,28.5
2017-12-23T04:20:24.346Z,25.6
2017-12-23T04:21:27.435Z,23.6
2017-12-23T04:22:29.390Z,22.3
2017-12-23T04:23:31.598Z,22.9
2017-12-23T04:24:34.075Z,23.1
2017-12-23T04:25:36.269Z,21.7
2017-12-23T04:26:38.622Z,22.9
2017-12-23T04:27:40.803Z,23.1
2017-12-23T04:28:42.909Z,21.3
2017-12-23T04:29:45.855Z,21.5
2017-12-23T04:30:47.961Z,20.7
2017-12-23T04:31:50.122Z,19.8
2017-12-23T04:32:54.582Z,20.4
2017-12-23T04:33:56.855Z,19.4
2017-12-23T04:34:58.788Z,18.4
2017-12-23T04:36:01.064Z,17.5
2017-12-23T04:37:03.129Z,17.2
2017-12-23T04:38:05.146Z,18.0
2017-12-23T04:39:07.307Z,18.4
2017-12-23T04:40:09.348Z,17.8
2017-12-23T04:41:14.527Z,18.1
2017-12-23T04:42:19.531Z,18.1
2017-12-23T04:43:22.062Z,19.3
2017-12-23T04:44:24.474Z,18.9
2017-12-23T04:45:26.969Z,19.1
2017-12-23T04:46:29.018Z,18.5
2017-12-23T04:47:31.276Z,19.0
2017-12-23T04:48:33.544Z,19.7
2017-12-23T04:49:35.730Z,19.4
2017-12-23T04:50:37.894Z,20.0
2017-12-23T04:51:40.186Z,19.1
2017-12-23T04:52:42.191Z,20.2
2017-12-23T04:53:44.851Z,20.2
2017-12-23T04:54:47.035Z,20.7
2017-12-23T04:55:49.093Z,21.6
2017-12-23T04:56:51.327Z,20.5
2017-12-23T04:57:53.366Z,21.7
2017-12-23T04:58:56.641Z,21.4
2017-12-23T04:59:58.605Z,22.2
2017-12-23T05:01:03.169Z,22.6
2017-12-23T05:02:05.429Z,22.7
2017-12-23T05:03:07.642Z,22.8
2017-12-23T05:04:09.846Z,22.4
2017-12-23T05:05:11.951Z,22.8
2017-12-23T05:06:13.984Z,23.4
2017-12-23T05:07:16.006Z,23.3
2017-12-23T05:08:18.049Z,23.8
2017-12-23T05:09:20.293Z,23.2
2017-12-23T05:10:22.562Z,24.0
2017-12-23T05:11:25.166Z,23.5
2017-12-23T05:12:27.379Z,25.1
2017-12-23T05:13:29.803Z,26.2
2017-12-23T05:14:32.019Z,25.3
2017-12-23T05:15:34.565Z,24.8
2017-12-23T05:16:36.703Z,27.4
2017-12-23T05:17:39.218Z,25.8
2017-12-23T05:18:41.461Z,27.4
2017-12-23T05:19:43.632Z,29.2
2017-12-23T05:20:46.853Z,29.5
2017-12-23T05:21:49.156Z,29.8
2017-12-23T05:22:51.464Z,30.5
2017-12-23T05:23:53.899Z,31.3
2017-12-23T05:24:56.405Z,32.1
2017-12-23T05:25:58.593Z,32.7
2017-12-23T05:27:00.837Z,33.2
2017-12-23T05:28:02.864Z,35.2
2017-12-23T05:29:04.755Z,35.4
2017-12-23T05:30:09.358Z,36.1
2017-12-23T05:31:11.915Z,36.1
2017-12-23T05:32:14.940Z,36.3
2017-12-23T05:33:16.832Z,37.0
2017-12-23T05:34:18.983Z,36.9
2017-12-23T05:35:26.256Z,37.7
2017-12-23T05:36:28.780Z,37.6
2017-12-23T05:37:31.298Z,37.8
2017-12-23T05:38:33.614Z,39.3
2017-12-23T05:39:35.795Z,39.6
2017-12-23T05:40:37.836Z,40.9
2017-12-23T05:41:40.426Z,40.1
2017-12-23T05:42:42.480Z,40.9
2017-12-23T05:43:44.927Z,41.4
2017-12-23T05:44:47.301Z,41.7
2017-12-23T05:45:49.836Z,42.3
2017-12-23T05:46:53.165Z,42.2
2017-12-23T05:47:55.912Z,43.8
2017-12-23T05:48:58.561Z,43.5
2017-12-23T05:50:01.001Z,42.6
2017-12-23T05:51:02.670Z,43.3
2017-12-23T05:52:05.043Z,41.3
2017-12-23T05:53:07.219Z,41.0
2017-12-23T05:54:09.705Z,41.7
2017-12-23T05:55:12.355Z,44.4
2017-12-23T05:56:14.497Z,46.1
2017-12-23T05:57:16.567Z,44.5
2017-12-23T05:58:18.640Z,45.2
2017-12-23T05:59:23.742Z,44.2
2017-12-23T06:00:26.371Z,44.2
2017-12-23T06:01:29.059Z,45.5
2017-12-23T06:02:38.386Z,45.6
2017-12-23T06:03:40.916Z,46.5
2017-12-23T06:04:45.913Z,45.3
2017-12-23T06:05:47.935Z,45.8
2017-12-23T06:06:50.092Z,45.0
2017-12-23T06:07:52.645Z,45.3
2017-12-23T06:08:55.751Z,46.6
2017-12-23T06:09:58.219Z,46.0
2017-12-23T06:11:01.377Z,46.5
2017-12-23T06:12:04.839Z,46.4
2017-12-23T06:13:07.196Z,45.6
2017-12-23T06:14:09.788Z,45.7
2017-12-23T06:15:11.982Z,46.0
2017-12-23T06:16:14.146Z,45.9
2017-12-23T06:17:16.967Z,46.0
2017-12-23T06:18:19.514Z,46.5
2017-12-23T06:19:21.477Z,46.4
2017-12-23T06:20:23.516Z,46.7
2017-12-23T06:21:25.752Z,46.5
2017-12-23T06:22:34.418Z,48.1
2017-12-23T06:23:36.408Z,47.2
2017-12-23T06:24:39.616Z,48.7
2017-12-23T06:25:42.251Z,47.9
2017-12-23T06:26:45.016Z,48.8
2017-12-23T06:27:47.215Z,48.7
2017-12-23T06:28:49.404Z,47.9
2017-12-23T06:29:51.771Z,47.9
2017-12-23T06:30:53.987Z,48.0
2017-12-23T06:31:56.149Z,47.0
2017-12-23T06:32:58.460Z,46.7
2017-12-23T06:34:01.046Z,47.7
2017-12-23T06:35:03.329Z,48.0
2017-12-23T06:36:05.596Z,49.2
2017-12-23T06:37:08.821Z,48.2
2017-12-23T06:38:11.057Z,49.9
2017-12-23T06:39:13.634Z,50.0
2017-12-23T06:40:15.583Z,50.0
2017-12-23T06:41:17.853Z,51.3
2017-12-23T06:42:20.328Z,48.4
2017-12-23T06:43:22.650Z,49.1
2017-12-23T06:44:24.709Z,50.4
2017-12-23T06:45:26.785Z,50.8
2017-12-23T06:46:31.815Z,50.1
2017-12-23T06:47:34.284Z,51.1
2017-12-23T06:48:36.637Z,50.9
2017-12-23T06:49:39.229Z,51.0
2017-12-23T06:50:41.293Z,50.6
2017-12-23T06:51:44.536Z,52.3
2017-12-23T06:52:46.943Z,50.9
2017-12-23T06:53:49.130Z,52.1
2017-12-23T06:54:51.651Z,52.9
2017-12-23T06:55:53.956Z,52.4
2017-12-23T06:56:56.296Z,53.9
2017-12-23T06:57:58.401Z,53.6
2017-12-23T06:59:00.662Z,52.9
2017-12-23T07:00:03.631Z,54.1
2017-12-23T07:01:06.654Z,53.6
2017-12-23T07:02:10.086Z,53.9
2017-12-23T07:03:12.664Z,55.3
2017-12-23T07:04:14.623Z,54.8
2017-12-23T07:05:16.780Z,56.1
2017-12-23T07:06:18.960Z,54.8
2017-12-23T07:07:20.914Z,53.0
2017-12-23T07:08:22.910Z,53.5
2017-12-23T07:09:25.058Z,50.9
2017-12-23T07:10:27.213Z,53.4
2017-12-23T07:11:29.453Z,54.1
2017-12-23T07:12:32.114Z,54.3
2017-12-23T07:13:34.269Z,53.9
2017-12-23T07:14:36.422Z,53.1
2017-12-23T07:15:38.440Z,53.5
2017-12-23T07:16:40.806Z,54.4
2017-12-23T07:17:43.075Z,52.8
2017-12-23T07:18:45.402Z,55.5
2017-12-23T07:19:47.242Z,54.7
2017-12-23T07:20:49.325Z,53.4
2017-12-23T07:21:51.885Z,52.3
2017-12-23T07:22:54.276Z,52.9
2017-12-23T07:23:56.376Z,53.2
2017-12-23T07:24:59.428Z,52.3
2017-12-23T07:26:02.507Z,53.6
2017-12-23T07:27:04.601Z,52.2
2017-12-23T07:28:06.604Z,50.8
2017-12-23T07:29:08.744Z,51.5
2017-12-23T07:30:10.877Z,52.4
2017-12-23T07:31:13.316Z,54.2
2017-12-23T07:32:15.420Z,52.7
2017-12-23T07:33:17.712Z,51.4
2017-12-23T07:34:20.602Z,54.7
2017-12-23T07:35:22.755Z,51.9
2017-12-23T07:36:25.124Z,51.2
2017-12-23T07:37:27.308Z,52.3
2017-12-23T07:38:29.557Z,51.3
2017-12-23T07:39:31.919Z,49.7
2017-12-23T07:40:34.411Z,51.8
2017-12-23T07:41:36.815Z,50.6
2017-12-23T07:42:38.944Z,50.2
2017-12-23T07:43:41.566Z,47.7
2017-12-23T07:44:43.845Z,47.4
2017-12-23T07:45:46.234Z,48.7
2017-12-23T07:46:49.196Z,48.4
2017-12-23T07:47:51.778Z,47.1
2017-12-23T07:48:53.928Z,46.1
2017-12-23T07:49:56.387Z,47.0
2017-12-23T07:50:58.918Z,45.0
2017-12-23T07:52:02.242Z,45.4
2017-12-23T07:53:04.540Z,45.4
2017-12-23T07:54:06.869Z,45.3
2017-12-23T07:55:09.137Z,44.7
2017-12-23T07:56:11.391Z,45.1
2017-12-23T07:57:14.651Z,43.7
2017-12-23T07:58:16.802Z,45.6
2017-12-23T07:59:19.420Z,42.9
2017-12-23T08:00:21.747Z,42.7
2017-12-23T08:01:24.083Z,42.5
2017-12-23T08:02:26.397Z,42.8
2017-12-23T08:03:29.061Z,42.7
2017-12-23T08:04:31.818Z,42.0
2017-12-23T08:05:34.370Z,43.5
2017-12-23T08:06:36.731Z,42.9
2017-12-23T08:07:39.439Z,43.4
2017-12-23T08:08:42.097Z,42.4
2017-12-23T08:09:44.507Z,40.8
2017-12-23T08:10:46.781Z,41.2
2017-12-23T08:11:49.015Z,42.7
2017-12-23T08:12:51.486Z,40.4
2017-12-23T08:13:53.801Z,39.5
2017-12-23T08:14:56.225Z,40.6
2017-12-23T08:15:59.151Z,40.3
2017-12-23T08:17:02.224Z,39.8
2017-12-23T08:18:04.417Z,39.2
2017-12-23T08:19:06.514Z,38.5
2017-12-23T08:20:08.693Z,38.9
2017-12-23T08:21:11.664Z,38.3
2017-12-23T08:22:14.127Z,37.4
2017-12-23T08:23:16.651Z,38.3
2017-12-23T08:24:18.667Z,38.4
2017-12-23T08:25:21.452Z,39.7
2017-12-23T08:26:23.484Z,37.0
2017-12-23T08:27:25.828Z,37.4
2017-12-23T08:28:27.827Z,39.2
2017-12-23T08:29:29.881Z,36.8
2017-12-23T08:30:31.994Z,37.8
2017-12-23T08:31:34.232Z,37.0
2017-12-23T08:32:36.295Z,36.3
2017-12-23T08:33:39.225Z,36.4
2017-12-23T08:34:41.383Z,36.8
2017-12-23T08:35:43.455Z,37.6
2017-12-23T08:36:45.876Z,36.6
2017-12-23T08:37:47.868Z,36.2
2017-12-23T08:38:49.928Z,34.9
2017-12-23T08:39:51.888Z,37.2
2017-12-23T08:40:54.189Z,36.8
2017-12-23T08:41:56.277Z,36.8
2017-12-23T08:42:58.459Z,35.8
2017-12-23T08:44:00.767Z,35.7
2017-12-23T08:45:03.003Z,38.2
2017-12-23T08:46:04.923Z,37.9
2017-12-23T08:47:06.867Z,36.0
2017-12-23T08:48:08.858Z,35.8
2017-12-23T08:49:10.824Z,36.5
2017-12-23T08:50:13.372Z,36.8
2017-12-23T08:51:15.447Z,38.0
2017-12-23T08:52:17.412Z,36.6
2017-12-23T08:53:19.361Z,35.6
2017-12-23T08:54:21.297Z,35.0
2017-12-23T08:55:23.306Z,35.5
2017-12-23T08:56:25.204Z,34.9
2017-12-23T08:57:27.173Z,34.9
2017-12-23T08:58:29.098Z,34.2
2017-12-23T08:59:31.006Z,33.8
2017-12-23T09:00:32.977Z,35.3
2017-12-23T09:01:36.004Z,34.5
2017-12-23T09:02:38.056Z,32.4
2017-12-23T09:03:40.288Z,31.9
2017-12-23T09:04:42.205Z,32.7
2017-12-23T09:05:44.167Z,33.3
2017-12-23T09:06:45.968Z,34.0
2017-12-23T09:07:47.854Z,32.5
2017-12-23T09:08:49.873Z,30.8
2017-12-23T09:09:52.100Z,31.8
2017-12-23T09:10:54.347Z,30.6
2017-12-23T09:11:56.531Z,29.4
2017-12-23T09:12:58.714Z,29.5
2017-12-23T09:14:00.748Z,27.3
2017-12-23T09:15:02.471Z,27.9
2017-12-23T09:16:04.330Z,28.0
2017-12-23T09:17:06.194Z,26.9
2017-12-23T09:18:08.741Z,26.8
2017-12-23T09:19:10.646Z,26.2
2017-12-23T09:20:13.525Z,26.7
2017-12-23T09:21:15.495Z,26.5
2017-12-23T09:22:18.337Z,27.4
2017-12-23T09:23:20.213Z,26.9
2017-12-23T09:24:22.141Z,28.5
2017-12-23T09:25:24.329Z,26.4
2017-12-23T09:26:26.274Z,26.9
2017-12-23T09:27:28.171Z,28.0
2017-12-23T09:28:30.140Z,28.1
2017-12-23T09:29:32.106Z,27.3
2017-12-23T09:30:33.895Z,27.1
2017-12-23T09:31:35.880Z,28.4
2017-12-23T09:32:38.029Z,27.7
2017-12-23T09:33:40.098Z,29.3
2017-12-23T09:34:42.032Z,26.7
2017-12-23T09:35:44.052Z,27.3
2017-12-23T09:36:46.278Z,27.6
2017-12-23T09:37:48.126Z,25.9
2017-12-23T09:38:50.119Z,27.4
2017-12-23T09:39:52.236Z,25.8
2017-12-23T09:40:54.080Z,26.1
2017-12-23T09:41:56.866Z,25.1
2017-12-23T09:42:58.895Z,25.6
2017-12-23T09:44:00.998Z,26.3
2017-12-23T09:45:05.962Z,26.6
2017-12-23T09:46:08.002Z,25.5
2017-12-23T09:47:09.961Z,25.3
2017-12-23T09:48:12.133Z,24.9
2017-12-23T09:49:14.030Z,25.0
2017-12-23T09:50:15.871Z,24.3
2017-12-23T09:51:18.152Z,24.1
2017-12-23T09:52:20.247Z,25.9
2017-12-23T09:53:23.014Z,26.5
2017-12-23T09:54:24.871Z,26.3
2017-12-23T09:55:26.856Z,27.4
2017-12-23T09:56:28.887Z,27.7
2017-12-23T09:57:30.858Z,28.7
2017-12-23T09:58:32.855Z,29.4
2017-12-23T09:59:35.356Z,29.1
2017-12-23T10:00:37.395Z,30.0
2017-12-23T10:01:39.322Z,30.3
2017-12-23T10:02:41.314Z,30.6
2017-12-23T10:03:43.462Z,30.5
2017-12-23T10:04:45.187Z,31.0
2017-12-23T10:05:48.067Z,27.9
2017-12-23T10:06:50.535Z,28.0
2017-12-23T10:07:52.592Z,28.3
2017-12-23T10:08:54.560Z,29.2
2017-12-23T10:09:56.683Z,31.1
2017-12-23T10:10:58.707Z,29.4
2017-12-23T10:12:00.637Z,28.6
2017-12-23T10:13:02.638Z,30.2
2017-12-23T10:14:04.433Z,30.6
2017-12-23T10:15:07.503Z,30.8
2017-12-23T10:16:09.455Z,30.4
2017-12-23T10:17:11.474Z,31.0
2017-12-23T10:18:13.361Z,31.4
2017-12-23T10:19:15.430Z,33.7
2017-12-23T10:20:17.264Z,32.9
2017-12-23T10:21:19.434Z,33.1
2017-12-23T10:22:21.594Z,34.1
2017-12-23T10:23:23.818Z,35.0
2017-12-23T10:24:25.720Z,35.3
2017-12-23T10:25:27.628Z,33.6
2017-12-23T10:26:29.540Z,34.2
2017-12-23T10:27:31.543Z,34.6
2017-12-23T10:28:33.347Z,34.7
2017-12-23T10:29:35.385Z,34.7
2017-12-23T10:30:37.638Z,35.8
2017-12-23T10:31:39.831Z,34.1
2017-12-23T10:32:42.448Z,35.5
2017-12-23T10:33:44.423Z,34.3
2017-12-23T10:34:46.747Z,35.6
2017-12-23T10:35:48.672Z,33.8
2017-12-23T10:36:50.899Z,34.8
2017-12-23T10:37:52.686Z,33.6
2017-12-23T10:38:54.862Z,33.6
2017-12-23T10:39:56.628Z,34.0
2017-12-23T10:40:59.514Z,32.2
2017-12-23T10:42:01.385Z,32.1
2017-12-23T10:43:03.380Z,32.1
2017-12-23T10:44:05.083Z,31.2
2017-12-23T10:45:06.826Z,30.2
2017-12-23T10:46:08.549Z,30.6
2017-12-23T10:47:10.349Z,30.7
2017-12-23T10:48:12.124Z,29.5
2017-12-23T10:49:14.163Z,30.4
2017-12-23T10:50:16.255Z,31.0
2017-12-23T10:54:57.327Z,28.3
2017-12-23T10:55:58.947Z,29.5
2017-12-23T10:57:00.573Z,29.6
2017-12-23T10:58:02.197Z,29.3
2017-12-23T10:59:04.186Z,26.8
2017-12-23T11:00:05.983Z,27.8
2017-12-23T11:01:07.880Z,26.9
2017-12-23T11:02:10.416Z,25.9
2017-12-23T11:03:12.336Z,27.3
2017-12-23T11:04:14.446Z,27.9
2017-12-23T11:05:16.519Z,26.7
2017-12-23T11:06:18.538Z,25.7
2017-12-23T11:07:20.390Z,26.1
2017-12-23T11:08:22.170Z,26.4
2017-12-23T11:09:23.931Z,26.3
2017-12-23T11:10:25.838Z,25.4
2017-12-23T11:11:27.745Z,24.2
2017-12-23T11:12:29.592Z,25.8
2017-12-23T11:13:31.605Z,25.5
2017-12-23T11:14:33.630Z,25.3
2017-12-23T11:15:36.667Z,25.8
2017-12-23T11:16:39.745Z,25.4
2017-12-23T11:17:41.837Z,24.9
2017-12-23T11:18:44.323Z,24.1
2017-12-23T11:19:46.447Z,25.0
2017-12-23T11:20:48.375Z,24.3
2017-12-23T11:21:50.451Z,24.3
2017-12-23T11:22:52.435Z,22.6
2017-12-23T11:23:54.536Z,21.3
2017-12-23T11:24:56.417Z,21.3
2017-12-23T11:25:58.518Z,21.3
2017-12-23T11:27:00.655Z,22.0
2017-12-23T11:28:02.741Z,20.7
2017-12-23T11:29:05.491Z,20.8
2017-12-23T11:30:07.513Z,21.2
2017-12-23T11:31:09.904Z,21.4
2017-12-23T11:32:12.955Z,20.6
2017-12-23T11:33:14.878Z,20.4
2017-12-23T11:34:17.000Z,19.5
2017-12-23T11:35:18.964Z,19.6
2017-12-23T11:36:21.323Z,18.6
2017-12-23T11:37:23.359Z,19.3
2017-12-23T11:38:25.240Z,19.1
2017-12-23T11:40:43.873Z,19.1
2017-12-23T11:41:45.652Z,19.0
2017-12-23T11:42:47.405Z,19.6
2017-12-23T11:43:49.044Z,19.7
2017-12-23T11:44:50.684Z,18.5
2017-12-23T11:45:52.319Z,19.0
2017-12-23T11:46:54.053Z,18.3
2017-12-23T11:47:56.038Z,19.4
2017-12-23T11:48:57.901Z,18.7
2017-12-23T11:49:59.852Z,18.2
2017-12-23T11:51:03.023Z,18.9
2017-12-23T11:52:05.805Z,18.3
2017-12-23T11:53:08.063Z,17.9
2017-12-23T11:54:09.958Z,18.5
2017-12-23T11:55:12.009Z,18.2
2017-12-23T11:56:13.968Z,18.1
2017-12-23T11:57:15.729Z,17.8
2017-12-23T11:58:17.838Z,17.0
2017-12-23T11:59:19.932Z,16.8
2017-12-23T12:00:22.121Z,17.5
2017-12-23T12:01:24.335Z,17.0
2017-12-23T12:02:26.334Z,18.0
2017-12-23T12:03:28.459Z,17.8
2017-12-23T12:04:30.637Z,16.7
2017-12-23T12:05:32.803Z,16.5
2017-12-23T12:06:34.821Z,16.3
2017-12-23T12:07:36.807Z,16.0
2017-12-23T12:08:38.837Z,16.4
2017-12-23T12:09:41.120Z,15.1
2017-12-23T12:10:43.376Z,14.3
2017-12-23T12:11:45.051Z,14.0
2017-12-23T12:12:46.945Z,13.5
2017-12-23T12:13:48.916Z,13.0
2017-12-23T12:14:50.911Z,14.0
2017-12-23T12:15:52.647Z,13.9
2017-12-23T12:16:54.879Z,14.1
2017-12-23T12:17:56.580Z,13.0
2017-12-23T12:18:58.611Z,12.6
2017-12-23T12:20:00.637Z,12.4
2017-12-23T12:21:03.162Z,12.8
2017-12-23T12:22:05.169Z,12.9
2017-12-23T12:23:07.206Z,12.2
2017-12-23T12:24:09.314Z,11.5
2017-12-23T12:25:11.356Z,12.3
2017-12-23T12:26:13.361Z,11.3
2017-12-23T12:27:15.259Z,10.6
2017-12-23T12:28:17.257Z,9.4
2017-12-23T12:29:19.285Z,8.9
2017-12-23T12:30:21.258Z,9.0
2017-12-23T12:31:23.455Z,8.5
2017-12-23T12:32:25.548Z,8.7
2017-12-23T12:33:28.232Z,8.6
2017-12-23T12:34:30.576Z,8.5
2017-12-23T12:35:32.502Z,8.1
2017-12-23T12:36:34.418Z,7.5
2017-12-23T12:37:36.504Z,6.8
2017-12-23T12:38:38.478Z,6.2
2017-12-23T12:39:40.671Z,5.9
2017-12-23T12:40:42.750Z,5.5
2017-12-23T12:41:44.523Z,5.4
2017-12-23T12:42:47.303Z,5.3
2017-12-23T12:43:49.232Z,5.2
2017-12-23T12:44:50.933Z,5.1
2017-12-23T12:45:52.826Z,5.0
2017-12-23T12:46:54.900Z,4.7
2017-12-23T12:47:56.664Z,5.3
2017-12-23T12:48:58.412Z,4.9
2017-12-23T12:50:00.071Z,5.3
2017-12-23T12:51:01.762Z,4.0
2017-12-23T12:52:03.669Z,4.1
2017-12-23T12:53:05.674Z,4.1
2017-12-23T12:54:07.346Z,3.9
2017-12-23T12:55:09.029Z,4.2
2017-12-23T12:56:10.735Z,4.3
2017-12-23T12:57:12.536Z,3.9
2017-12-23T12:58:14.524Z,3.8
2017-12-23T12:59:16.224Z,4.1
2017-12-23T13:00:18.016Z,4.2
2017-12-23T13:01:19.954Z,3.9
2017-12-23T13:02:21.970Z,3.6
2017-12-23T13:03:23.749Z,3.5
2017-12-23T13:04:25.442Z,4.0
2017-12-23T13:05:27.488Z,3.5
2017-12-23T13:06:29.310Z,4.0
2017-12-23T13:07:30.990Z,3.6
2017-12-23T13:08:33.802Z,3.3
2017-12-23T13:09:35.531Z,3.5
2017-12-23T13:10:37.453Z,3.7
2017-12-23T13:11:39.155Z,3.6
2017-12-23T13:12:40.880Z,3.7
2017-12-23T13:13:43.559Z,3.7
2017-12-23T13:14:45.590Z,3.5
2017-12-23T13:15:47.659Z,3.6
2017-12-23T13:16:49.464Z,3.9
2017-12-23T13:17:51.172Z,3.8
2017-12-23T13:18:53.090Z,4.1
2017-12-23T13:19:54.806Z,4.0
2017-12-23T13:20:56.586Z,4.1
2017-12-23T13:21:58.443Z,4.1
2017-12-23T13:23:00.361Z,4.4
2017-12-23T13:24:02.446Z,4.7
2017-12-23T13:25:04.125Z,4.0
2017-12-23T13:26:05.955Z,4.1
2017-12-23T13:27:07.791Z,3.7
2017-12-23T13:28:09.548Z,3.9
2017-12-23T13:29:11.258Z,4.2
2017-12-23T13:30:13.062Z,3.9
2017-12-23T13:31:14.868Z,3.9
2017-12-23T13:32:16.681Z,3.9
2017-12-23T13:33:18.400Z,4.2
2017-12-23T13:34:20.118Z,4.0
2017-12-23T13:35:21.813Z,4.4
2017-12-23T13:36:23.658Z,4.3
2017-12-23T13:37:25.332Z,4.5
2017-12-23T13:38:27.011Z,4.9
2017-12-23T13:39:28.809Z,5.1
2017-12-23T13:40:30.614Z,5.5
2017-12-23T13:41:32.720Z,5.6
2017-12-23T13:42:35.603Z,5.5
2017-12-23T13:43:37.353Z,5.3
2017-12-23T13:44:39.386Z,5.1
2017-12-23T13:45:41.133Z,6.0
2017-12-23T13:46:43.225Z,5.3
2017-12-23T13:47:45.194Z,6.0
2017-12-23T13:48:46.899Z,6.7
2017-12-23T13:49:48.899Z,7.2
2017-12-23T13:50:51.963Z,7.5
2017-12-23T13:51:53.851Z,7.6
2017-12-23T13:52:55.712Z,7.6
2017-12-23T13:53:57.523Z,7.8
2017-12-23T13:54:59.288Z,8.1
2017-12-23T13:56:01.048Z,8.2
2017-12-23T13:57:02.815Z,8.2
2017-12-23T13:58:04.654Z,8.5